createdAt,value
2023-05-22T00:01:59.373Z,53.02
2023-05-22T00:04:29.994Z,52.69
2023-05-22T00:06:56.601Z,52.96
2023-05-22T00:09:25.027Z,53.42
2023-05-22T00:11:51.899Z,53.44
2023-05-22T00:14:18.899Z,53.66
2023-05-22T00:16:46.316Z,53.47
2023-05-22T00:19:16.424Z,53.56
2023-05-22T00:21:43.575Z,53.88
2023-05-22T00:24:10.073Z,53.93
2023-05-22T00:26:36.538Z,53.98
2023-05-22T00:29:03.614Z,54.30
2023-05-22T00:31:30.125Z,53.87
2023-05-22T00:33:56.617Z,54.02
2023-05-22T00:36:23.400Z,54.19
2023-05-22T00:38:49.872Z,54.19
2023-05-22T00:41:16.506Z,54.27
2023-05-22T00:43:45.081Z,54.28
2023-05-22T00:46:12.600Z,54.11
2023-05-22T00:48:39.352Z,54.44
2023-05-22T00:51:07.164Z,54.48
2023-05-22T00:53:33.672Z,54.02
2023-05-22T00:56:00.973Z,54.47
2023-05-22T00:58:27.722Z,54.62
2023-05-22T01:00:55.471Z,54.30
2023-05-22T01:03:26.603Z,54.40
2023-05-22T01:05:54.787Z,54.52
2023-05-22T01:08:21.620Z,54.47
2023-05-22T01:10:54.336Z,54.41
2023-05-22T01:13:34.219Z,54.60
2023-05-22T01:16:18.827Z,55.20
2023-05-22T01:19:08.843Z,54.71
2023-05-22T01:21:54.190Z,54.30
2023-05-22T01:24:43.364Z,54.42
2023-05-22T01:27:39.500Z,54.82
2023-05-22T01:30:42.596Z,54.60
2023-05-22T01:33:12.219Z,54.81
2023-05-22T01:35:40.558Z,54.85
2023-05-22T01:38:07.763Z,55.16
2023-05-22T01:40:34.474Z,54.97
2023-05-22T01:43:01.248Z,54.75
2023-05-22T01:45:27.817Z,55.40
2023-05-22T01:47:54.406Z,55.12
2023-05-22T01:50:21.144Z,55.25
2023-05-22T01:53:12.648Z,55.29
2023-05-22T01:55:46.219Z,55.67
2023-05-22T01:58:39.404Z,55.25
2023-05-22T02:01:10.045Z,56.01
2023-05-22T02:03:39.504Z,55.68
2023-05-22T02:06:08.766Z,55.71
2023-05-22T02:08:38.832Z,55.47
2023-05-22T02:11:06.338Z,55.96
2023-05-22T02:13:33.986Z,55.97
2023-05-22T02:16:00.985Z,56.06
2023-05-22T02:18:31.469Z,56.33
2023-05-22T02:20:59.125Z,56.01
2023-05-22T02:23:26.632Z,56.29
2023-05-22T02:25:56.010Z,56.77
2023-05-22T02:28:22.490Z,56.71
2023-05-22T02:30:49.442Z,57.06
2023-05-22T02:33:17.926Z,56.68
2023-05-22T02:35:47.554Z,57.29
2023-05-22T02:38:14.078Z,56.92
2023-05-22T02:40:40.988Z,57.21
2023-05-22T02:43:07.804Z,57.60
2023-05-22T02:45:34.366Z,57.51
2023-05-22T02:48:03.495Z,57.72
2023-05-22T02:50:30.229Z,57.63
2023-05-22T02:52:56.703Z,58.01
2023-05-22T02:55:23.206Z,57.89
2023-05-22T02:57:49.690Z,58.55
2023-05-22T03:00:16.937Z,58.10
2023-05-22T03:02:43.547Z,58.53
2023-05-22T03:05:10.149Z,58.77
2023-05-22T03:07:37.130Z,59.34
2023-05-22T03:10:03.764Z,61.05
2023-05-22T03:12:30.485Z,60.01
2023-05-22T03:14:56.972Z,59.28
2023-05-22T03:17:23.495Z,59.58
2023-05-22T03:19:50.071Z,59.46
2023-05-22T03:22:18.620Z,60.74
2023-05-22T03:24:45.744Z,60.55
2023-05-22T03:27:15.031Z,59.73
2023-05-22T03:29:41.986Z,60.75
2023-05-22T03:32:08.462Z,59.33
2023-05-22T03:34:35.971Z,59.83
2023-05-22T03:37:03.458Z,59.48
2023-05-22T03:39:30.634Z,59.95
2023-05-22T03:42:02.018Z,59.88
2023-05-22T03:44:29.180Z,59.18
2023-05-22T03:46:55.882Z,59.24
2023-05-22T03:49:22.377Z,59.20
2023-05-22T03:51:48.839Z,59.75
2023-05-22T03:54:15.972Z,59.69
2023-05-22T03:56:43.294Z,59.24
2023-05-22T03:59:09.926Z,59.46
2023-05-22T04:01:39.371Z,59.94
2023-05-22T04:04:05.932Z,60.49
2023-05-22T04:06:33.041Z,59.98
2023-05-22T04:09:00.996Z,60.35
2023-05-22T04:11:30.375Z,59.71
2023-05-22T04:13:56.847Z,59.70
2023-05-22T04:16:23.612Z,60.34
2023-05-22T04:18:50.190Z,60.21
2023-05-22T04:21:17.481Z,60.07
2023-05-22T04:23:45.576Z,59.79
2023-05-22T04:26:12.037Z,60.24
2023-05-22T04:28:39.203Z,60.12
2023-05-22T04:31:06.574Z,60.18
2023-05-22T04:33:34.371Z,60.46
2023-05-22T04:36:02.293Z,60.06
2023-05-22T04:38:28.747Z,60.42
2023-05-22T04:40:55.184Z,60.44
2023-05-22T04:43:23.441Z,60.58
2023-05-22T04:45:51.528Z,60.72
2023-05-22T04:48:19.438Z,60.87
2023-05-22T04:50:46.399Z,61.78
2023-05-22T04:53:13.112Z,62.18
2023-05-22T04:55:39.866Z,62.68
2023-05-22T04:58:06.942Z,62.09
2023-05-22T05:00:33.419Z,62.40
2023-05-22T05:03:00.505Z,62.17
2023-05-22T05:05:27.293Z,62.32
2023-05-22T05:07:54.604Z,62.24
2023-05-22T05:10:21.239Z,62.42
2023-05-22T05:12:47.772Z,62.81
2023-05-22T05:15:14.291Z,61.96
2023-05-22T05:17:41.154Z,62.65
2023-05-22T05:20:08.337Z,62.24
2023-05-22T05:22:34.901Z,62.57
2023-05-22T05:25:03.657Z,62.54
2023-05-22T05:27:30.217Z,62.46
2023-05-22T05:29:57.006Z,62.18
2023-05-22T05:32:28.873Z,62.05
2023-05-22T05:35:23.779Z,62.16
2023-05-22T05:38:01.691Z,62.33
2023-05-22T05:40:29.184Z,62.09
2023-05-22T05:42:56.221Z,61.08
2023-05-22T05:45:26.053Z,60.69
2023-05-22T05:47:53.128Z,60.47
2023-05-22T05:50:19.684Z,60.11
2023-05-22T05:52:46.952Z,59.13
2023-05-22T05:55:16.752Z,59.56
2023-05-22T05:57:43.267Z,58.90
2023-05-22T06:00:14.939Z,58.13
2023-05-22T06:02:41.926Z,58.28
2023-05-22T06:05:21.697Z,58.70
2023-05-22T06:07:52.487Z,57.81
2023-05-22T06:10:18.991Z,58.00
2023-05-22T06:12:57.462Z,58.17
2023-05-22T06:15:24.561Z,57.10
2023-05-22T06:17:51.092Z,57.20
2023-05-22T06:20:17.611Z,57.36
2023-05-22T06:22:44.127Z,57.84
2023-05-22T06:25:10.939Z,56.86
2023-05-22T06:27:37.446Z,57.18
2023-05-22T06:30:05.473Z,57.36
2023-05-22T06:32:37.391Z,57.31
2023-05-22T06:35:04.172Z,56.88
2023-05-22T06:37:33.009Z,57.56
2023-05-22T06:40:00.595Z,57.76
2023-05-22T06:42:32.991Z,57.38
2023-05-22T06:45:19.755Z,57.43
2023-05-22T06:48:01.762Z,57.73
2023-05-22T06:50:31.066Z,58.39
2023-05-22T06:52:57.553Z,57.29
2023-05-22T06:55:25.077Z,56.32
2023-05-22T06:58:02.563Z,56.64
2023-05-22T07:00:30.531Z,57.14
2023-05-22T07:03:04.811Z,56.46
2023-05-22T07:05:38.246Z,56.06
2023-05-22T07:08:06.174Z,56.06
2023-05-22T07:10:33.267Z,55.89
2023-05-22T07:12:59.898Z,55.27
2023-05-22T07:15:26.661Z,54.83
2023-05-22T07:17:56.288Z,55.00
2023-05-22T07:20:22.846Z,55.24
2023-05-22T07:23:21.466Z,55.25
2023-05-22T07:25:49.376Z,54.51
2023-05-22T07:28:16.957Z,54.41
2023-05-22T07:30:53.110Z,54.95
2023-05-22T07:33:20.412Z,54.83
2023-05-22T07:35:47.239Z,55.05
2023-05-22T07:38:14.029Z,54.35
2023-05-22T07:40:47.730Z,53.80
2023-05-22T07:43:15.579Z,54.24
2023-05-22T07:45:44.067Z,54.05
2023-05-22T07:48:13.182Z,54.80
2023-05-22T07:50:39.690Z,54.11
2023-05-22T07:53:06.614Z,53.13
2023-05-22T07:55:36.833Z,52.69
2023-05-22T07:58:04.219Z,52.49
2023-05-22T08:00:35.065Z,51.94
2023-05-22T08:03:01.611Z,52.25
2023-05-22T08:05:28.159Z,51.51
2023-05-22T08:07:54.660Z,51.76
2023-05-22T08:10:21.258Z,51.26
2023-05-22T08:12:47.801Z,51.34
2023-05-22T08:15:14.356Z,50.62
2023-05-22T08:17:40.942Z,50.33
2023-05-22T08:20:09.301Z,49.94
2023-05-22T08:22:37.431Z,50.59
2023-05-22T08:25:04.313Z,51.13
2023-05-22T08:27:30.802Z,50.86
2023-05-22T08:29:57.265Z,50.84
2023-05-22T08:32:23.832Z,50.97
2023-05-22T08:34:50.500Z,51.14
2023-05-22T08:37:16.975Z,51.72
2023-05-22T08:39:43.448Z,51.80
2023-05-22T08:42:09.903Z,50.88
2023-05-22T08:44:36.607Z,50.69
2023-05-22T08:47:09.759Z,49.75
2023-05-22T08:49:38.868Z,50.29
2023-05-22T08:52:18.491Z,49.54
2023-05-22T08:54:54.603Z,49.62
2023-05-22T08:57:21.800Z,49.48
2023-05-22T08:59:48.377Z,47.71
2023-05-22T09:02:16.917Z,48.35
2023-05-22T09:04:43.539Z,47.51
2023-05-22T09:07:10.127Z,47.24
2023-05-22T09:09:37.789Z,48.63
2023-05-22T09:12:09.118Z,47.49
2023-05-22T09:14:40.287Z,47.91
2023-05-22T09:17:08.079Z,47.82
2023-05-22T09:19:34.782Z,47.62
2023-05-22T09:22:05.312Z,46.81
2023-05-22T09:24:38.520Z,47.52
2023-05-22T09:27:08.504Z,46.98
2023-05-22T09:29:49.352Z,46.84
2023-05-22T09:32:17.372Z,46.42
2023-05-22T09:34:45.119Z,46.65
2023-05-22T09:37:12.239Z,46.20
2023-05-22T09:39:41.090Z,45.50
2023-05-22T09:42:12.767Z,46.37
2023-05-22T09:44:39.442Z,45.35
2023-05-22T09:47:06.512Z,45.12
2023-05-22T09:49:43.327Z,45.84
2023-05-22T09:52:12.423Z,46.47
2023-05-22T09:54:47.614Z,46.41
2023-05-22T09:57:20.720Z,45.81
2023-05-22T09:59:54.524Z,46.35
2023-05-22T10:02:25.623Z,45.53
2023-05-22T10:04:53.340Z,45.92
2023-05-22T10:07:23.330Z,45.79
2023-05-22T10:09:59.653Z,44.98
2023-05-22T10:12:28.548Z,45.26
2023-05-22T10:14:55.662Z,45.10
2023-05-22T10:17:23.850Z,45.41
2023-05-22T10:19:51.733Z,44.97
2023-05-22T10:22:20.924Z,45.19
2023-05-22T10:24:48.338Z,44.37
2023-05-22T10:27:14.936Z,44.27
2023-05-22T10:29:50.566Z,43.62
2023-05-22T10:32:41.342Z,44.54
2023-05-22T10:35:30.176Z,44.35
2023-05-22T10:38:22.512Z,44.53
2023-05-22T10:40:49.895Z,44.54
2023-05-22T10:43:16.437Z,44.61
2023-05-22T10:45:46.463Z,43.70
2023-05-22T10:48:13.023Z,43.93
2023-05-22T10:50:40.240Z,43.74
2023-05-22T10:53:26.289Z,44.24
2023-05-22T10:55:54.983Z,43.79
2023-05-22T10:58:36.416Z,43.80
2023-05-22T11:01:20.501Z,43.14
2023-05-22T11:03:59.087Z,43.66
2023-05-22T11:06:46.038Z,42.46
2023-05-22T11:09:19.245Z,43.66
2023-05-22T11:11:46.777Z,43.45
2023-05-22T11:14:17.240Z,43.61
2023-05-22T11:16:43.778Z,43.97
2023-05-22T11:19:22.885Z,42.27
2023-05-22T11:21:50.629Z,42.14
2023-05-22T11:24:18.780Z,41.94
2023-05-22T11:27:01.542Z,43.00
2023-05-22T11:29:29.231Z,42.21
2023-05-22T11:31:57.102Z,42.77
2023-05-22T11:34:24.663Z,42.35
2023-05-22T11:36:52.772Z,42.00
2023-05-22T11:39:19.221Z,41.31
2023-05-22T11:41:45.690Z,41.35
2023-05-22T11:44:12.155Z,40.63
2023-05-22T11:46:38.904Z,40.94
2023-05-22T11:49:06.582Z,41.51
2023-05-22T11:51:33.297Z,40.03
2023-05-22T11:53:59.769Z,40.85
2023-05-22T11:56:26.368Z,41.11
2023-05-22T11:58:53.222Z,40.78
2023-05-22T12:01:19.756Z,41.19
2023-05-22T12:03:46.578Z,40.21
2023-05-22T12:06:15.153Z,40.05
2023-05-22T12:08:43.934Z,40.50
2023-05-22T12:11:11.633Z,40.35
2023-05-22T12:13:39.054Z,40.27
2023-05-22T12:16:23.852Z,40.17
2023-05-22T12:18:54.293Z,39.43
2023-05-22T12:21:21.050Z,39.45
2023-05-22T12:23:50.006Z,39.34
2023-05-22T12:26:17.202Z,39.04
2023-05-22T12:28:44.464Z,38.30
2023-05-22T12:31:11.199Z,38.32
2023-05-22T12:33:39.656Z,38.45
2023-05-22T12:36:09.396Z,38.61
2023-05-22T12:38:37.704Z,37.20
2023-05-22T12:41:04.177Z,37.55
2023-05-22T12:43:30.667Z,37.75
2023-05-22T12:45:57.325Z,37.31
2023-05-22T12:48:23.879Z,37.08
2023-05-22T12:50:50.684Z,36.98
2023-05-22T12:53:17.164Z,37.04
2023-05-22T12:55:43.742Z,36.52
2023-05-22T12:58:10.225Z,36.94
2023-05-22T13:00:36.751Z,37.35
2023-05-22T13:03:03.894Z,36.53
2023-05-22T13:05:30.518Z,36.36
2023-05-22T13:07:57.046Z,36.36
2023-05-22T13:10:23.569Z,36.80
2023-05-22T13:12:51.602Z,36.03
2023-05-22T13:15:18.618Z,36.12
2023-05-22T13:17:45.723Z,36.25
2023-05-22T13:20:13.070Z,36.09
2023-05-22T13:22:40.184Z,36.02
2023-05-22T13:25:06.841Z,35.81
2023-05-22T13:27:34.036Z,35.84
2023-05-22T13:30:00.656Z,36.42
2023-05-22T13:32:27.197Z,36.16
2023-05-22T13:34:53.715Z,35.42
2023-05-22T13:37:20.628Z,35.37
2023-05-22T13:39:47.116Z,35.06
2023-05-22T13:42:13.612Z,35.07
2023-05-22T13:44:40.052Z,35.09
2023-05-22T13:47:06.669Z,35.07
2023-05-22T13:49:33.157Z,34.47
2023-05-22T13:51:59.676Z,34.79
2023-05-22T13:54:26.580Z,35.11
2023-05-22T13:56:53.069Z,34.77
2023-05-22T13:59:19.531Z,34.30
2023-05-22T14:01:45.975Z,34.65
2023-05-22T14:04:12.434Z,34.60
2023-05-22T14:06:38.935Z,35.35
2023-05-22T14:09:07.250Z,34.68
2023-05-22T14:11:33.964Z,35.08
2023-05-22T14:14:00.585Z,33.94
2023-05-22T14:16:27.094Z,33.83
2023-05-22T14:18:53.586Z,34.36
2023-05-22T14:21:20.071Z,34.11
2023-05-22T14:23:46.617Z,33.30
2023-05-22T14:26:14.378Z,33.78
2023-05-22T14:28:41.365Z,33.26
2023-05-22T14:31:07.890Z,32.86
2023-05-22T14:33:35.720Z,33.29
2023-05-22T14:36:02.566Z,33.17
2023-05-22T14:38:32.952Z,33.66
2023-05-22T14:41:00.322Z,32.70
2023-05-22T14:43:26.962Z,33.37
2023-05-22T14:45:54.208Z,33.32
2023-05-22T14:48:25.886Z,33.05
2023-05-22T14:50:55.466Z,33.39
2023-05-22T14:53:22.203Z,33.90
2023-05-22T14:55:48.733Z,33.55
2023-05-22T14:58:15.248Z,33.49
2023-05-22T15:00:46.130Z,33.40
2023-05-22T15:03:12.828Z,33.70
2023-05-22T15:05:39.606Z,33.38
2023-05-22T15:08:06.219Z,33.39
2023-05-22T15:10:32.735Z,33.58
2023-05-22T15:12:59.186Z,33.28
2023-05-22T15:15:25.713Z,33.71
2023-05-22T15:17:52.227Z,33.41
2023-05-22T15:20:18.752Z,32.76
2023-05-22T15:22:45.432Z,33.06
2023-05-22T15:25:14.889Z,33.03
2023-05-22T15:27:42.558Z,32.24
2023-05-22T15:30:09.941Z,31.99
2023-05-22T15:32:37.297Z,33.08
2023-05-22T15:35:05.555Z,32.22
2023-05-22T15:37:33.660Z,33.03
2023-05-22T15:40:01.834Z,33.24
2023-05-22T15:42:28.634Z,32.64
2023-05-22T15:44:55.317Z,33.01
2023-05-22T15:47:21.815Z,33.39
2023-05-22T15:49:48.271Z,33.04
2023-05-22T15:52:14.747Z,33.11
2023-05-22T15:54:41.209Z,33.87
2023-05-22T15:57:07.667Z,33.85
2023-05-22T15:59:34.140Z,33.78
2023-05-22T16:02:00.599Z,34.02
2023-05-22T16:04:27.042Z,33.53
2023-05-22T16:06:53.617Z,33.68
2023-05-22T16:09:20.183Z,33.75
2023-05-22T16:11:46.653Z,34.32
2023-05-22T16:14:13.459Z,33.79
2023-05-22T16:16:40.053Z,33.97
2023-05-22T16:19:06.570Z,33.96
2023-05-22T16:21:33.077Z,34.28
2023-05-22T16:23:59.610Z,34.16
2023-05-22T16:26:26.845Z,33.98
2023-05-22T16:28:53.349Z,33.72
2023-05-22T16:31:20.002Z,33.59
2023-05-22T16:33:46.554Z,33.91
2023-05-22T16:36:13.051Z,34.36
2023-05-22T16:38:39.523Z,34.30
2023-05-22T16:41:06.002Z,34.65
2023-05-22T16:43:32.481Z,34.28
2023-05-22T16:45:58.931Z,34.75
2023-05-22T16:48:25.468Z,34.88
2023-05-22T16:50:51.930Z,34.83
2023-05-22T16:53:18.380Z,35.33
2023-05-22T16:55:44.826Z,35.15
2023-05-22T16:58:12.660Z,35.45
2023-05-22T17:00:40.135Z,35.97
2023-05-22T17:03:08.094Z,35.90
2023-05-22T17:05:35.765Z,35.77
2023-05-22T17:08:02.215Z,35.83
2023-05-22T17:10:28.809Z,35.47
2023-05-22T17:12:55.336Z,35.62
2023-05-22T17:15:21.813Z,36.10
2023-05-22T17:17:48.316Z,35.77
2023-05-22T17:20:14.805Z,36.07
2023-05-22T17:22:42.358Z,36.24
2023-05-22T17:25:09.239Z,36.24
2023-05-22T17:27:36.779Z,36.15
2023-05-22T17:30:04.812Z,34.87
2023-05-22T17:32:31.362Z,34.99
2023-05-22T17:34:57.933Z,35.20
2023-05-22T17:37:24.386Z,35.17
2023-05-22T17:39:51.910Z,34.64
2023-05-22T17:42:18.373Z,34.23
2023-05-22T17:44:45.019Z,34.38
2023-05-22T17:47:13.246Z,33.80
2023-05-22T17:49:39.812Z,34.22
2023-05-22T17:52:08.412Z,34.37
2023-05-22T17:54:35.453Z,34.91
2023-05-22T17:57:03.997Z,35.25
2023-05-22T17:59:32.319Z,35.30
2023-05-22T18:01:58.930Z,35.79
2023-05-22T18:04:25.508Z,36.38
2023-05-22T18:06:52.192Z,36.92
2023-05-22T18:09:18.656Z,37.09
2023-05-22T18:11:45.126Z,37.63
2023-05-22T18:14:11.608Z,37.91
2023-05-22T18:16:38.097Z,37.72
2023-05-22T18:19:04.634Z,37.84
2023-05-22T18:21:32.239Z,38.08
2023-05-22T18:23:58.746Z,38.26
2023-05-22T18:26:26.668Z,38.66
2023-05-22T18:28:53.212Z,38.72
2023-05-22T18:31:19.753Z,38.67
2023-05-22T18:33:46.576Z,38.96
2023-05-22T18:36:13.226Z,39.24
2023-05-22T18:38:39.658Z,39.52
2023-05-22T18:41:06.589Z,39.65
2023-05-22T18:43:33.218Z,39.88
2023-05-22T18:45:59.698Z,40.33
2023-05-22T18:48:28.111Z,40.23
2023-05-22T18:50:57.239Z,40.25
2023-05-22T18:53:25.149Z,40.19
2023-05-22T18:55:52.369Z,40.57
2023-05-22T18:58:18.855Z,40.29
2023-05-22T19:00:45.673Z,40.44
2023-05-22T19:03:12.327Z,40.39
2023-05-22T19:05:38.805Z,40.55
2023-05-22T19:08:05.716Z,40.75
2023-05-22T19:10:33.060Z,40.99
2023-05-22T19:12:59.542Z,40.50
2023-05-22T19:15:26.098Z,40.78
2023-05-22T19:17:52.741Z,40.91
2023-05-22T19:20:19.278Z,40.64
2023-05-22T19:22:45.732Z,40.69
2023-05-22T19:25:12.182Z,40.74
2023-05-22T19:27:39.423Z,41.12
2023-05-22T19:30:06.739Z,41.18
2023-05-22T19:32:33.233Z,41.53
2023-05-22T19:34:59.748Z,41.54
2023-05-22T19:37:26.210Z,41.52
2023-05-22T19:39:53.874Z,41.65
2023-05-22T19:42:20.319Z,41.62
2023-05-22T19:44:47.073Z,41.84
2023-05-22T19:47:13.559Z,41.53
2023-05-22T19:49:40.040Z,42.31
2023-05-22T19:52:06.654Z,42.03
2023-05-22T19:54:33.152Z,42.21
2023-05-22T19:56:59.636Z,41.89
2023-05-22T19:59:26.832Z,42.33
2023-05-22T20:01:53.879Z,42.46
2023-05-22T20:04:21.433Z,42.63
2023-05-22T20:06:48.447Z,42.98
2023-05-22T20:09:15.372Z,42.79
2023-05-22T20:11:41.834Z,42.81
2023-05-22T20:14:08.362Z,42.74
2023-05-22T20:16:34.968Z,43.07
2023-05-22T20:19:02.503Z,42.93
2023-05-22T20:21:29.056Z,42.98
2023-05-22T20:23:55.630Z,43.17
2023-05-22T20:26:22.176Z,43.24
2023-05-22T20:28:48.705Z,43.44
2023-05-22T20:31:15.208Z,43.35
2023-05-22T20:33:41.872Z,43.25
2023-05-22T20:36:08.651Z,43.39
2023-05-22T20:38:35.148Z,43.60
2023-05-22T20:41:02.566Z,44.05
2023-05-22T20:43:30.686Z,44.19
2023-05-22T20:45:57.462Z,44.33
2023-05-22T20:48:24.095Z,44.70
2023-05-22T20:50:50.679Z,44.63
2023-05-22T20:53:17.593Z,44.52
2023-05-22T20:55:44.099Z,44.40
2023-05-22T20:58:10.586Z,44.45
2023-05-22T21:00:37.052Z,45.00
2023-05-22T21:03:03.670Z,45.04
2023-05-22T21:05:30.251Z,45.16
2023-05-22T21:07:57.790Z,45.10
2023-05-22T21:10:24.278Z,45.18
2023-05-22T21:12:50.782Z,45.24
2023-05-22T21:15:17.248Z,46.12
2023-05-22T21:17:43.832Z,45.90
2023-05-22T21:20:10.664Z,46.00
2023-05-22T21:22:37.113Z,46.43
2023-05-22T21:25:03.782Z,46.27
2023-05-22T21:27:30.310Z,46.45
2023-05-22T21:29:56.792Z,46.63
2023-05-22T21:32:23.259Z,46.84
2023-05-22T21:34:49.792Z,46.86
2023-05-22T21:37:16.248Z,46.75
2023-05-22T21:39:42.715Z,46.71
2023-05-22T21:42:09.341Z,47.01
2023-05-22T21:44:35.974Z,46.68
2023-05-22T21:47:02.535Z,47.17
2023-05-22T21:49:29.130Z,46.77
2023-05-22T21:51:55.896Z,47.36
2023-05-22T21:54:22.343Z,47.11
2023-05-22T21:56:48.787Z,47.38
2023-05-22T21:59:15.263Z,47.84
2023-05-22T22:01:43.445Z,47.37
2023-05-22T22:04:10.048Z,47.71
2023-05-22T22:06:36.945Z,47.36
2023-05-22T22:09:03.851Z,47.54
2023-05-22T22:11:30.349Z,47.12
2023-05-22T22:13:56.812Z,47.17
2023-05-22T22:16:23.530Z,47.58
2023-05-22T22:18:50.327Z,47.60
2023-05-22T22:21:26.374Z,47.55
2023-05-22T22:23:52.837Z,47.41
2023-05-22T22:26:19.301Z,47.78
2023-05-22T22:28:46.264Z,47.42
2023-05-22T22:31:12.714Z,47.65
2023-05-22T22:33:39.189Z,47.21
2023-05-22T22:36:05.836Z,47.63
2023-05-22T22:38:32.952Z,47.83
2023-05-22T22:41:00.172Z,47.62
2023-05-22T22:43:26.713Z,47.97
2023-05-22T22:45:54.197Z,47.70
2023-05-22T22:48:22.389Z,48.05
2023-05-22T22:50:49.377Z,47.87
2023-05-22T22:53:15.850Z,48.11
2023-05-22T22:55:42.657Z,48.25
2023-05-22T22:58:09.572Z,47.80
2023-05-22T23:00:39.172Z,47.98
2023-05-22T23:03:05.691Z,47.90
2023-05-22T23:05:32.312Z,47.59
2023-05-22T23:08:01.875Z,47.69
2023-05-22T23:10:28.919Z,47.86
2023-05-22T23:12:55.895Z,48.57
2023-05-22T23:15:22.806Z,48.59
2023-05-22T23:17:51.586Z,47.88
2023-05-22T23:20:18.379Z,48.03
2023-05-22T23:22:44.813Z,48.90
2023-05-22T23:25:11.254Z,48.72
2023-05-22T23:27:37.727Z,49.37
2023-05-22T23:30:04.972Z,48.86
2023-05-22T23:32:31.613Z,48.51
2023-05-22T23:34:58.099Z,48.88
2023-05-22T23:37:24.575Z,49.08
2023-05-22T23:39:51.129Z,48.80
2023-05-22T23:42:17.667Z,49.04
2023-05-22T23:44:44.117Z,48.93
2023-05-22T23:47:10.697Z,49.14
2023-05-22T23:49:37.216Z,49.23
2023-05-22T23:52:03.797Z,49.04
2023-05-22T23:54:30.245Z,49.55
2023-05-22T23:56:56.685Z,49.35
2023-05-22T23:59:23.151Z,50.36
